createdAt,value
2018-06-04T00:00:36.877Z,79.88
2018-06-04T00:01:36.842Z,80.13
2018-06-04T00:02:36.827Z,79.65
2018-06-04T00:03:36.824Z,79.55
2018-06-04T00:04:36.775Z,76.19
2018-06-04T00:05:36.749Z,78.34
2018-06-04T00:06:36.732Z,78.78
2018-06-04T00:07:36.704Z,78.50
2018-06-04T00:08:36.683Z,78.88
2018-06-04T00:09:36.656Z,76.42
2018-06-04T00:10:36.635Z,76.00
2018-06-04T00:11:36.610Z,76.81
2018-06-04T00:12:36.591Z,77.86
2018-06-04T00:13:36.559Z,78.73
2018-06-04T00:14:36.545Z,79.75
2018-06-04T00:15:36.514Z,79.55
2018-06-04T00:16:36.492Z,78.78
2018-06-04T00:17:36.466Z,78.88
2018-06-04T00:18:36.446Z,79.07
2018-06-04T00:19:36.426Z,78.88
2018-06-04T00:20:36.415Z,78.78
2018-06-04T00:21:36.375Z,78.21
2018-06-04T00:22:36.347Z,77.83
2018-06-04T00:23:36.327Z,77.98
2018-06-04T00:24:36.300Z,76.96
2018-06-04T00:25:36.275Z,76.96
2018-06-04T00:26:36.258Z,77.21
2018-06-04T00:27:36.234Z,77.01
2018-06-04T00:28:36.202Z,76.54
2018-06-04T00:29:36.181Z,76.64
2018-06-04T00:30:36.158Z,76.44
2018-06-04T00:31:36.132Z,76.54
2018-06-04T00:32:36.116Z,76.54
2018-06-04T00:33:36.084Z,75.38
2018-06-04T00:34:36.070Z,75.00
2018-06-04T00:35:36.038Z,75.29
2018-06-04T00:36:36.024Z,76.25
2018-06-04T00:37:35.998Z,76.15
2018-06-04T00:38:35.968Z,76.44
2018-06-04T00:39:35.943Z,76.25
2018-06-04T00:40:35.923Z,76.15
2018-06-04T00:41:35.896Z,75.67
2018-06-04T00:42:35.876Z,75.67
2018-06-04T00:43:35.846Z,75.96
2018-06-04T00:44:35.831Z,74.43
2018-06-04T00:45:35.798Z,76.15
2018-06-04T00:46:35.783Z,75.96
2018-06-04T00:47:35.753Z,75.96
2018-06-04T00:48:35.733Z,76.64
2018-06-04T00:49:35.705Z,76.34
2018-06-04T00:50:35.683Z,76.34
2018-06-04T00:51:35.654Z,75.87
2018-06-04T00:52:35.641Z,76.06
2018-06-04T00:53:35.611Z,76.15
2018-06-04T00:54:35.596Z,75.48
2018-06-04T00:55:35.567Z,75.96
2018-06-04T00:56:35.537Z,75.96
2018-06-04T00:57:35.520Z,76.34
2018-06-04T00:58:35.491Z,76.15
2018-06-04T00:59:35.473Z,76.06
2018-06-04T01:00:35.459Z,76.06
2018-06-04T01:01:35.444Z,75.38
2018-06-04T01:02:35.392Z,75.57
2018-06-04T01:03:35.369Z,76.06
2018-06-04T01:04:35.355Z,75.87
2018-06-04T01:05:35.321Z,76.54
2018-06-04T01:06:35.305Z,76.64
2018-06-04T01:07:35.277Z,76.54
2018-06-04T01:08:35.258Z,76.54
2018-06-04T01:09:35.231Z,77.21
2018-06-04T01:10:35.206Z,75.48
2018-06-04T01:11:35.186Z,76.54
2018-06-04T01:12:35.155Z,76.64
2018-06-04T01:13:35.132Z,76.64
2018-06-04T01:14:35.113Z,76.73
2018-06-04T01:15:35.097Z,76.64
2018-06-04T01:16:35.060Z,76.31
2018-06-04T01:17:35.034Z,75.45
2018-06-04T01:18:35.023Z,76.34
2018-06-04T01:19:34.995Z,76.21
2018-06-04T01:20:34.969Z,76.40
2018-06-04T01:21:34.948Z,76.02
2018-06-04T01:22:34.912Z,76.12
2018-06-04T01:23:34.908Z,76.31
2018-06-04T01:24:34.873Z,76.06
2018-06-04T01:25:34.849Z,76.73
2018-06-04T01:26:34.828Z,76.64
2018-06-04T01:27:34.804Z,76.34
2018-06-04T01:28:34.775Z,75.63
2018-06-04T01:29:34.749Z,76.31
2018-06-04T01:30:34.732Z,76.50
2018-06-04T01:31:34.729Z,76.34
2018-06-04T01:32:34.685Z,75.29
2018-06-04T01:33:34.660Z,75.38
2018-06-04T01:34:34.629Z,75.87
2018-06-04T01:35:34.614Z,76.02
2018-06-04T01:36:34.589Z,76.34
2018-06-04T01:37:34.562Z,76.50
2018-06-04T01:38:34.535Z,75.54
2018-06-04T01:39:34.535Z,75.20
2018-06-04T01:40:34.484Z,73.27
2018-06-04T01:41:34.471Z,74.43
2018-06-04T01:42:34.443Z,74.90
2018-06-04T01:43:34.419Z,75.25
2018-06-04T01:44:34.388Z,75.73
2018-06-04T01:45:34.369Z,75.06
2018-06-04T01:46:34.364Z,75.45
2018-06-04T01:47:34.316Z,74.43
2018-06-04T01:48:34.301Z,75.35
2018-06-04T01:49:34.276Z,76.02
2018-06-04T01:50:34.247Z,75.73
2018-06-04T01:51:34.224Z,75.82
2018-06-04T01:52:34.200Z,76.12
2018-06-04T01:53:34.177Z,75.82
2018-06-04T01:54:34.162Z,75.92
2018-06-04T01:55:34.128Z,76.12
2018-06-04T01:56:34.104Z,76.59
2018-06-04T01:57:34.083Z,76.50
2018-06-04T01:58:34.060Z,75.92
2018-06-04T01:59:34.032Z,76.02
2018-06-04T02:00:34.012Z,75.35
2018-06-04T02:01:33.989Z,76.02
2018-06-04T02:02:33.979Z,75.82
2018-06-04T02:03:33.935Z,75.63
2018-06-04T02:04:33.918Z,75.25
2018-06-04T02:05:33.892Z,75.54
2018-06-04T02:06:33.860Z,75.15
2018-06-04T02:07:33.845Z,75.15
2018-06-04T02:08:33.821Z,76.31
2018-06-04T02:09:33.790Z,76.02
2018-06-04T02:10:33.772Z,76.50
2018-06-04T02:11:33.743Z,75.45
2018-06-04T02:12:33.721Z,75.25
2018-06-04T02:13:33.703Z,73.04
2018-06-04T02:14:33.672Z,71.51
2018-06-04T02:15:33.653Z,71.61
2018-06-04T02:16:33.621Z,72.85
2018-06-04T02:17:33.609Z,74.96
2018-06-04T02:18:33.574Z,75.63
2018-06-04T02:19:33.555Z,76.31
2018-06-04T02:20:33.525Z,76.31
2018-06-04T02:21:33.507Z,76.50
2018-06-04T02:22:33.478Z,76.59
2018-06-04T02:23:33.463Z,76.50
2018-06-04T02:24:33.429Z,76.31
2018-06-04T02:25:33.413Z,76.69
2018-06-04T02:26:33.382Z,76.56
2018-06-04T02:27:33.356Z,73.10
2018-06-04T02:28:33.334Z,72.08
2018-06-04T02:29:33.314Z,71.12
2018-06-04T02:30:33.291Z,75.15
2018-06-04T02:31:33.264Z,74.39
2018-06-04T02:32:33.243Z,75.82
2018-06-04T02:33:33.219Z,76.69
2018-06-04T02:34:33.205Z,76.50
2018-06-04T02:35:33.174Z,75.45
2018-06-04T02:36:33.139Z,77.13
2018-06-04T02:37:33.119Z,76.50
2018-06-04T02:38:33.100Z,76.27
2018-06-04T02:39:33.072Z,76.46
2018-06-04T02:40:33.045Z,76.27
2018-06-04T02:41:33.023Z,75.79
2018-06-04T02:42:32.997Z,75.79
2018-06-04T02:43:32.975Z,76.17
2018-06-04T02:44:32.948Z,75.60
2018-06-04T02:45:32.931Z,74.64
2018-06-04T02:46:32.901Z,74.93
2018-06-04T02:47:32.880Z,74.54
2018-06-04T02:48:32.855Z,74.16
2018-06-04T02:49:32.828Z,74.26
2018-06-04T02:50:32.809Z,74.54
2018-06-04T02:51:32.782Z,74.35
2018-06-04T02:52:32.760Z,73.77
2018-06-04T02:53:32.734Z,73.68
2018-06-04T02:54:32.708Z,74.35
2018-06-04T02:55:32.684Z,74.35
2018-06-04T02:56:32.659Z,74.35
2018-06-04T02:57:32.637Z,74.44
2018-06-04T02:58:32.615Z,74.16
2018-06-04T02:59:32.591Z,73.87
2018-06-04T03:00:32.562Z,74.35
2018-06-04T03:01:32.540Z,73.97
2018-06-04T03:02:32.519Z,71.28
2018-06-04T03:03:32.555Z,72.33
2018-06-04T03:04:32.465Z,71.28
2018-06-04T03:05:32.437Z,71.19
2018-06-04T03:06:32.423Z,72.72
2018-06-04T03:07:32.411Z,70.61
2018-06-04T03:08:32.367Z,73.87
2018-06-04T03:09:32.344Z,74.26
2018-06-04T03:10:32.324Z,73.30
2018-06-04T03:11:32.304Z,74.54
2018-06-04T03:12:32.279Z,74.35
2018-06-04T03:13:32.258Z,74.54
2018-06-04T03:14:32.229Z,73.77
2018-06-04T03:15:32.199Z,73.97
2018-06-04T03:16:32.177Z,73.77
2018-06-04T03:17:32.157Z,73.68
2018-06-04T03:18:32.135Z,73.30
2018-06-04T03:19:32.110Z,72.63
2018-06-04T03:20:32.075Z,73.16
2018-06-04T03:21:32.055Z,72.72
2018-06-04T03:22:32.032Z,72.63
2018-06-04T03:23:32.008Z,70.70
2018-06-04T03:24:32.234Z,71.95
2018-06-04T03:25:31.955Z,72.72
2018-06-04T03:26:31.993Z,72.91
2018-06-04T03:27:31.906Z,72.63
2018-06-04T03:28:31.895Z,72.53
2018-06-04T03:29:31.917Z,73.39
2018-06-04T03:30:31.841Z,73.68
2018-06-04T03:31:31.823Z,73.68
2018-06-04T03:32:31.792Z,73.68
2018-06-04T03:33:31.855Z,73.87
2018-06-04T03:34:31.742Z,73.49
2018-06-04T03:35:31.720Z,73.68
2018-06-04T03:36:31.690Z,72.14
2018-06-04T03:37:31.715Z,71.76
2018-06-04T03:38:31.666Z,72.72
2018-06-04T03:39:31.678Z,72.63
2018-06-04T03:40:31.656Z,72.53
2018-06-04T03:41:31.589Z,72.05
2018-06-04T03:42:31.584Z,72.14
2018-06-04T03:43:31.521Z,71.86
2018-06-04T03:44:31.569Z,71.66
2018-06-04T03:45:31.472Z,68.50
2018-06-04T03:46:31.451Z,70.70
2018-06-04T03:47:31.422Z,71.19
2018-06-04T03:48:31.405Z,71.57
2018-06-04T03:49:31.378Z,71.28
2018-06-04T03:50:31.356Z,72.14
2018-06-04T03:51:31.358Z,71.76
2018-06-04T03:52:31.333Z,72.43
2018-06-04T03:53:31.298Z,72.33
2018-06-04T03:54:31.261Z,71.95
2018-06-04T03:55:31.289Z,69.46
2018-06-04T03:56:31.201Z,68.50
2018-06-04T03:57:31.181Z,68.98
2018-06-04T03:58:31.159Z,71.09
2018-06-04T03:59:31.192Z,69.74
2018-06-04T04:00:31.164Z,68.69
2018-06-04T04:01:31.095Z,69.17
2018-06-04T04:02:31.143Z,68.02
2018-06-04T04:03:31.074Z,68.79
2018-06-04T04:04:31.014Z,71.57
2018-06-04T04:05:30.994Z,72.14
2018-06-04T04:06:30.961Z,71.19
2018-06-04T04:07:30.943Z,71.37
2018-06-04T04:08:30.914Z,71.28
2018-06-04T04:09:30.893Z,71.57
2018-06-04T04:10:30.868Z,71.37
2018-06-04T04:11:30.843Z,70.03
2018-06-04T04:12:30.817Z,67.92
2018-06-04T04:13:30.825Z,68.59
2018-06-04T04:14:30.773Z,67.25
2018-06-04T04:15:30.756Z,68.40
2018-06-04T04:16:30.718Z,67.06
2018-06-04T04:17:30.731Z,68.02
2018-06-04T04:18:30.673Z,68.91
2018-06-04T04:19:30.644Z,68.02
2018-06-04T04:20:30.629Z,69.49
2018-06-04T04:21:30.656Z,72.85
2018-06-04T04:22:30.635Z,72.91
2018-06-04T04:23:30.598Z,70.42
2018-06-04T04:24:30.532Z,69.46
2018-06-04T04:25:30.499Z,68.73
2018-06-04T04:26:30.483Z,69.68
2018-06-04T04:27:30.557Z,68.59
2018-06-04T04:28:30.464Z,68.44
2018-06-04T04:29:30.405Z,72.18
2018-06-04T04:30:30.388Z,72.47
2018-06-04T04:31:30.353Z,69.20
2018-06-04T04:32:30.337Z,70.93
2018-06-04T04:33:30.305Z,72.56
2018-06-04T04:34:30.337Z,71.31
2018-06-04T04:35:30.310Z,71.98
2018-06-04T04:36:30.270Z,72.37
2018-06-04T04:37:30.210Z,69.56
2018-06-04T04:38:30.191Z,69.01
2018-06-04T04:39:30.163Z,71.09
2018-06-04T04:40:30.143Z,71.80
2018-06-04T04:41:31.023Z,70.64
2018-06-04T04:42:30.209Z,70.64
2018-06-04T04:43:30.063Z,70.26
2018-06-04T04:44:30.049Z,69.68
2018-06-04T04:45:30.043Z,67.96
2018-06-04T04:46:30.023Z,68.82
2018-06-04T04:47:30.110Z,70.45
2018-06-04T04:48:29.951Z,71.31
2018-06-04T04:49:29.980Z,70.55
2018-06-04T04:50:29.958Z,70.74
2018-06-04T04:51:29.933Z,69.40
2018-06-04T04:52:29.854Z,68.73
2018-06-04T04:53:29.897Z,68.53
2018-06-04T04:54:29.865Z,69.68
2018-06-04T04:55:29.843Z,68.34
2018-06-04T04:56:29.797Z,69.01
2018-06-04T04:57:29.728Z,68.05
2018-06-04T04:58:29.708Z,67.99
2018-06-04T04:59:29.680Z,67.41
2018-06-04T05:00:29.658Z,69.14
2018-06-04T05:01:29.650Z,68.66
2018-06-04T05:02:29.609Z,67.80
2018-06-04T05:03:29.635Z,68.08
2018-06-04T05:04:29.617Z,67.70
2018-06-04T05:05:29.533Z,68.37
2018-06-04T05:06:29.581Z,68.57
2018-06-04T05:07:29.517Z,68.57
2018-06-04T05:08:29.465Z,70.01
2018-06-04T05:09:29.444Z,69.24
2018-06-04T05:10:29.422Z,69.24
2018-06-04T05:11:29.466Z,68.57
2018-06-04T05:12:29.486Z,70.23
2018-06-04T05:13:29.350Z,69.34
2018-06-04T05:14:29.319Z,70.52
2018-06-04T05:15:29.330Z,70.23
2018-06-04T05:16:29.275Z,70.04
2018-06-04T05:17:29.250Z,67.74
2018-06-04T05:18:29.298Z,67.64
2018-06-04T05:19:29.237Z,69.37
2018-06-04T05:20:29.213Z,69.46
2018-06-04T05:21:29.226Z,68.70
2018-06-04T05:22:29.129Z,69.75
2018-06-04T05:23:29.099Z,69.75
2018-06-04T05:24:29.090Z,69.27
2018-06-04T05:25:29.060Z,67.83
2018-06-04T05:26:29.096Z,68.41
2018-06-04T05:27:29.003Z,68.79
2018-06-04T05:28:28.989Z,69.75
2018-06-04T05:29:28.966Z,69.66
2018-06-04T05:30:28.933Z,68.02
2018-06-04T05:31:28.910Z,67.35
2018-06-04T05:32:28.891Z,67.68
2018-06-04T05:33:28.869Z,69.66
2018-06-04T05:34:28.838Z,70.17
2018-06-04T05:35:28.814Z,68.44
2018-06-04T05:36:28.799Z,67.96
2018-06-04T05:37:28.771Z,68.63
2018-06-04T05:38:28.748Z,67.77
2018-06-04T05:39:28.723Z,67.48
2018-06-04T05:40:28.714Z,67.86
2018-06-04T05:41:28.677Z,66.71
2018-06-04T05:42:28.650Z,68.15
2018-06-04T05:43:28.630Z,68.92
2018-06-04T05:44:28.602Z,67.86
2018-06-04T05:45:28.579Z,70.94
2018-06-04T05:46:28.554Z,72.29
2018-06-04T05:47:28.530Z,69.63
2018-06-04T05:48:28.505Z,70.11
2018-06-04T05:49:28.479Z,69.63
2018-06-04T05:50:28.463Z,69.73
2018-06-04T05:51:28.445Z,69.92
2018-06-04T05:52:28.406Z,70.88
2018-06-04T05:53:28.387Z,70.88
2018-06-04T05:54:28.366Z,69.73
2018-06-04T05:55:28.341Z,70.68
2018-06-04T05:56:28.320Z,70.78
2018-06-04T05:57:28.295Z,70.78
2018-06-04T05:58:28.294Z,72.23
2018-06-04T05:59:28.249Z,71.59
2018-06-04T06:00:28.220Z,70.82
2018-06-04T06:01:28.192Z,70.43
2018-06-04T06:02:28.177Z,72.17
2018-06-04T06:03:28.156Z,72.36
2018-06-04T06:04:28.123Z,71.69
2018-06-04T06:05:28.101Z,71.69
2018-06-04T06:06:28.078Z,71.88
2018-06-04T06:07:28.056Z,72.17
2018-06-04T06:08:28.056Z,72.26
2018-06-04T06:09:28.007Z,73.51
2018-06-04T06:10:27.979Z,73.90
2018-06-04T06:11:27.969Z,75.54
2018-06-04T06:12:27.931Z,73.90
2018-06-04T06:13:27.922Z,73.22
2018-06-04T06:14:27.940Z,73.90
2018-06-04T06:15:27.863Z,72.94
2018-06-04T06:16:27.847Z,73.84
2018-06-04T06:17:27.826Z,74.61
2018-06-04T06:18:27.794Z,74.61
2018-06-04T06:19:27.771Z,75.38
2018-06-04T06:20:27.743Z,76.92
2018-06-04T06:21:27.720Z,76.73
2018-06-04T06:22:27.703Z,76.63
2018-06-04T06:23:27.680Z,76.25
2018-06-04T06:24:27.659Z,76.92
2018-06-04T06:25:27.648Z,77.31
2018-06-04T06:26:27.600Z,76.92
2018-06-04T06:27:27.581Z,76.73
2018-06-04T06:28:27.557Z,77.01
2018-06-04T06:29:27.535Z,79.27
2018-06-04T06:30:27.515Z,77.63
2018-06-04T06:31:27.486Z,78.59
2018-06-04T06:32:27.469Z,78.69
2018-06-04T06:33:27.439Z,80.04
2018-06-04T06:34:27.421Z,79.36
2018-06-04T06:35:27.398Z,79.27
2018-06-04T06:36:27.380Z,78.21
2018-06-04T06:37:27.354Z,77.63
2018-06-04T06:38:27.319Z,79.27
2018-06-04T06:39:27.295Z,78.88
2018-06-04T06:40:27.281Z,79.11
2018-06-04T06:41:27.249Z,79.08
2018-06-04T06:42:27.235Z,79.27
2018-06-04T06:43:27.205Z,81.43
2018-06-04T06:44:27.178Z,80.23
2018-06-04T06:45:27.169Z,80.33
2018-06-04T06:46:27.141Z,79.21
2018-06-04T06:47:27.115Z,80.27
2018-06-04T06:48:27.114Z,81.43
2018-06-04T06:49:27.072Z,79.89
2018-06-04T06:50:27.041Z,82.29
2018-06-04T06:51:27.015Z,81.91
2018-06-04T06:52:27.001Z,80.56
2018-06-04T06:53:26.996Z,81.81
2018-06-04T06:54:26.952Z,80.56
2018-06-04T06:55:26.969Z,80.56
2018-06-04T06:56:26.905Z,81.52
2018-06-04T06:57:26.882Z,81.62
2018-06-04T06:58:26.850Z,83.45
2018-06-04T06:59:26.828Z,82.01
2018-06-04T07:00:26.814Z,82.20
2018-06-04T07:01:26.784Z,83.36
2018-06-04T07:02:26.771Z,82.39
2018-06-04T07:03:26.738Z,83.88
2018-06-04T07:04:26.716Z,82.92
2018-06-04T07:05:26.687Z,83.40
2018-06-04T07:06:26.675Z,83.11
2018-06-04T07:07:26.651Z,81.66
2018-06-04T07:08:26.618Z,81.66
2018-06-04T07:09:26.605Z,83.11
2018-06-04T07:10:26.582Z,83.20
2018-06-04T07:11:26.553Z,83.40
2018-06-04T07:12:26.534Z,82.53
2018-06-04T07:13:26.511Z,83.69
2018-06-04T07:14:26.540Z,83.98
2018-06-04T07:15:26.465Z,83.11
2018-06-04T07:16:26.433Z,83.50
2018-06-04T07:17:26.422Z,82.82
2018-06-04T07:18:26.386Z,83.50
2018-06-04T07:19:26.369Z,84.27
2018-06-04T07:20:26.346Z,83.30
2018-06-04T07:21:26.363Z,84.55
2018-06-04T07:22:26.297Z,83.98
2018-06-04T07:23:26.297Z,83.92
2018-06-04T07:24:26.256Z,84.75
2018-06-04T07:25:26.237Z,84.94
2018-06-04T07:26:26.219Z,85.08
2018-06-04T07:27:26.182Z,83.59
2018-06-04T07:28:26.160Z,84.11
2018-06-04T07:29:26.143Z,83.83
2018-06-04T07:30:26.110Z,84.31
2018-06-04T07:31:26.848Z,83.92
2018-06-04T07:32:26.072Z,84.50
2018-06-04T07:33:26.046Z,84.41
2018-06-04T07:34:26.027Z,84.50
2018-06-04T07:35:25.994Z,83.92
2018-06-04T07:36:25.979Z,84.41
2018-06-04T07:37:25.948Z,84.50
2018-06-04T07:38:25.926Z,84.89
2018-06-04T07:39:25.912Z,85.37
2018-06-04T07:40:25.882Z,84.89
2018-06-04T07:41:25.865Z,85.94
2018-06-04T07:42:25.834Z,84.98
2018-06-04T07:43:25.809Z,85.85
2018-06-04T07:44:25.882Z,85.08
2018-06-04T07:45:25.764Z,86.72
2018-06-04T07:46:25.749Z,85.17
2018-06-04T07:47:25.726Z,84.50
2018-06-04T07:48:25.694Z,84.83
2018-06-04T07:49:25.672Z,84.06
2018-06-04T07:50:25.653Z,84.64
2018-06-04T07:51:25.626Z,84.35
2018-06-04T07:52:25.606Z,85.89
2018-06-04T07:53:25.582Z,85.80
2018-06-04T07:54:25.559Z,85.31
2018-06-04T07:55:25.542Z,86.28
2018-06-04T07:56:25.509Z,85.31
2018-06-04T07:57:25.490Z,85.89
2018-06-04T07:58:25.465Z,85.22
2018-06-04T07:59:25.445Z,86.18
2018-06-04T08:00:25.423Z,85.99
2018-06-04T08:01:25.404Z,86.38
2018-06-04T08:02:25.376Z,86.57
2018-06-04T08:03:25.347Z,86.28
2018-06-04T08:04:25.406Z,86.76
2018-06-04T08:05:25.311Z,86.57
2018-06-04T08:06:25.301Z,86.86
2018-06-04T08:07:25.254Z,86.76
2018-06-04T08:08:25.239Z,86.57
2018-06-04T08:09:25.214Z,86.47
2018-06-04T08:10:25.205Z,86.13
2018-06-04T08:11:25.171Z,86.13
2018-06-04T08:12:25.140Z,87.38
2018-06-04T08:13:25.126Z,86.42
2018-06-04T08:14:25.099Z,86.71
2018-06-04T08:15:25.072Z,86.22
2018-06-04T08:16:25.058Z,86.71
2018-06-04T08:17:25.032Z,87.38
2018-06-04T08:18:25.004Z,86.90
2018-06-04T08:19:25.001Z,86.71
2018-06-04T08:20:24.956Z,86.90
2018-06-04T08:21:24.937Z,86.90
2018-06-04T08:22:24.918Z,86.52
2018-06-04T08:23:24.900Z,86.71
2018-06-04T08:24:24.870Z,86.80
2018-06-04T08:25:24.895Z,86.61
2018-06-04T08:26:24.879Z,86.90
2018-06-04T08:27:24.798Z,86.52
2018-06-04T08:28:24.784Z,86.42
2018-06-04T08:29:24.759Z,87.38
2018-06-04T08:30:24.737Z,86.90
2018-06-04T08:31:24.709Z,86.80
2018-06-04T08:32:24.689Z,87.00
2018-06-04T08:33:24.662Z,87.13
2018-06-04T08:34:24.645Z,86.46
2018-06-04T08:35:24.614Z,87.52
2018-06-04T08:36:24.595Z,87.43
2018-06-04T08:37:24.570Z,86.94
2018-06-04T08:38:24.612Z,86.46
2018-06-04T08:39:24.532Z,86.36
2018-06-04T08:40:24.511Z,86.75
2018-06-04T08:41:24.486Z,86.94
2018-06-04T08:42:24.458Z,86.94
2018-06-04T08:43:24.466Z,86.65
2018-06-04T08:44:24.412Z,86.17
2018-06-04T08:45:24.390Z,86.56
2018-06-04T08:46:24.370Z,87.13
2018-06-04T08:47:24.351Z,86.46
2018-06-04T08:48:24.330Z,86.56
2018-06-04T08:49:24.298Z,86.27
2018-06-04T08:50:24.280Z,86.46
2018-06-04T08:51:24.253Z,86.51
2018-06-04T08:52:24.236Z,85.93
2018-06-04T08:53:24.215Z,86.41
2018-06-04T08:54:24.187Z,85.93
2018-06-04T08:55:24.171Z,85.35
2018-06-04T08:56:24.219Z,85.63
2018-06-04T08:57:24.118Z,86.21
2018-06-04T08:58:24.100Z,86.60
2018-06-04T08:59:24.070Z,86.21
2018-06-04T09:00:24.054Z,85.15
2018-06-04T09:01:24.037Z,86.02
2018-06-04T09:02:24.006Z,86.11
2018-06-04T09:03:23.989Z,85.73
2018-06-04T09:04:23.961Z,86.02
2018-06-04T09:05:23.944Z,85.93
2018-06-04T09:06:23.915Z,86.74
2018-06-04T09:07:23.890Z,86.06
2018-06-04T09:08:23.875Z,85.53
2018-06-04T09:09:23.850Z,85.10
2018-06-04T09:10:23.822Z,86.25
2018-06-04T09:11:23.804Z,85.58
2018-06-04T09:12:23.777Z,86.06
2018-06-04T09:13:23.762Z,85.68
2018-06-04T09:14:23.732Z,85.77
2018-06-04T09:15:23.728Z,85.42
2018-06-04T09:16:23.692Z,85.10
2018-06-04T09:17:23.668Z,84.71
2018-06-04T09:18:23.651Z,85.14
2018-06-04T09:19:23.618Z,85.24
2018-06-04T09:20:23.604Z,85.62
2018-06-04T09:21:23.577Z,83.16
2018-06-04T09:22:23.552Z,83.06
2018-06-04T09:23:23.534Z,81.71
2018-06-04T09:24:23.512Z,83.84
2018-06-04T09:25:23.487Z,83.49
2018-06-04T09:26:23.466Z,83.40
2018-06-04T09:27:23.448Z,83.16
2018-06-04T09:28:23.423Z,82.58
2018-06-04T09:29:23.400Z,82.78
2018-06-04T09:30:23.393Z,82.68
2018-06-04T09:31:23.351Z,82.39
2018-06-04T09:32:23.397Z,83.20
2018-06-04T09:33:23.310Z,81.85
2018-06-04T09:34:23.294Z,81.75
2018-06-04T09:35:23.262Z,82.33
2018-06-04T09:36:23.243Z,81.95
2018-06-04T09:37:23.218Z,81.75
2018-06-04T09:38:23.194Z,80.49
2018-06-04T09:39:23.171Z,81.65
2018-06-04T09:40:23.151Z,83.40
2018-06-04T09:41:23.128Z,82.95
2018-06-04T09:42:23.116Z,82.47
2018-06-04T09:43:23.089Z,80.82
2018-06-04T09:44:23.066Z,81.98
2018-06-04T09:45:23.036Z,80.15
2018-06-04T09:46:23.033Z,79.57
2018-06-04T09:47:23.028Z,79.60
2018-06-04T09:48:22.977Z,78.31
2018-06-04T09:49:22.956Z,76.66
2018-06-04T09:50:22.927Z,76.28
2018-06-04T09:51:22.906Z,76.46
2018-06-04T09:52:22.890Z,78.69
2018-06-04T09:53:22.868Z,78.02
2018-06-04T09:54:22.846Z,76.28
2018-06-04T09:55:22.824Z,75.02
2018-06-04T09:56:22.795Z,75.60
2018-06-04T09:57:22.831Z,76.37
2018-06-04T09:58:22.749Z,77.11
2018-06-04T09:59:22.734Z,77.53
2018-06-04T10:00:22.704Z,77.30
2018-06-04T10:01:22.690Z,78.11
2018-06-04T10:02:22.671Z,79.37
2018-06-04T10:03:22.644Z,79.57
2018-06-04T10:04:22.619Z,77.53
2018-06-04T10:05:22.598Z,79.57
2018-06-04T10:06:22.574Z,78.59
2018-06-04T10:07:22.552Z,77.24
2018-06-04T10:08:22.536Z,78.69
2018-06-04T10:09:22.513Z,77.73
2018-06-04T10:10:22.493Z,75.98
2018-06-04T10:11:22.467Z,73.85
2018-06-04T10:12:22.444Z,71.53
2018-06-04T10:13:22.423Z,72.60
2018-06-04T10:14:22.402Z,76.79
2018-06-04T10:15:22.377Z,74.08
2018-06-04T10:16:22.364Z,75.63
2018-06-04T10:17:22.330Z,75.44
2018-06-04T10:18:22.314Z,76.89
2018-06-04T10:19:22.290Z,75.96
2018-06-04T10:20:22.277Z,76.15
2018-06-04T10:21:22.243Z,76.64
2018-06-04T10:22:22.224Z,75.77
2018-06-04T10:23:22.221Z,75.77
2018-06-04T10:24:22.184Z,71.99
2018-06-04T10:25:22.151Z,68.30
2018-06-04T10:26:22.139Z,65.59
2018-06-04T10:27:22.110Z,67.44
2018-06-04T10:28:22.093Z,64.27
2018-06-04T10:29:22.084Z,64.95
2018-06-04T10:30:22.045Z,66.30
2018-06-04T10:31:22.022Z,66.69
2018-06-04T10:32:22.010Z,65.34
2018-06-04T10:33:21.980Z,66.11
2018-06-04T10:34:21.960Z,64.85
2018-06-04T10:35:21.943Z,67.18
2018-06-04T10:36:21.918Z,65.24
2018-06-04T10:37:21.901Z,66.60
2018-06-04T10:38:21.871Z,67.18
2018-06-04T10:39:21.855Z,65.72
2018-06-04T10:40:21.827Z,67.89
2018-06-04T10:41:21.807Z,67.89
2018-06-04T10:42:21.789Z,67.69
2018-06-04T10:43:21.764Z,68.37
2018-06-04T10:44:21.872Z,68.86
2018-06-04T10:45:21.721Z,68.57
2018-06-04T10:46:21.715Z,67.89
2018-06-04T10:47:21.673Z,65.59
2018-06-04T10:48:21.687Z,67.34
2018-06-04T10:49:21.642Z,64.62
2018-06-04T10:50:21.640Z,65.50
2018-06-04T10:51:21.611Z,65.40
2018-06-04T10:52:21.568Z,63.98
2018-06-04T10:53:21.550Z,65.53
2018-06-04T10:54:21.527Z,65.82
2018-06-04T10:55:21.522Z,64.95
2018-06-04T10:56:21.493Z,66.89
2018-06-04T10:57:21.468Z,66.50
2018-06-04T10:58:21.448Z,63.78
2018-06-04T10:59:21.446Z,62.52
2018-06-04T11:00:21.394Z,62.78
2018-06-04T11:01:21.441Z,62.78
2018-06-04T11:02:21.388Z,61.61
2018-06-04T11:03:21.406Z,60.25
2018-06-04T11:04:21.313Z,62.01
2018-06-04T11:05:21.347Z,63.36
2018-06-04T11:06:21.268Z,65.50
2018-06-04T11:07:21.272Z,63.26
2018-06-04T11:08:21.226Z,62.49
2018-06-04T11:09:21.226Z,62.68
2018-06-04T11:10:21.184Z,63.75
2018-06-04T11:11:21.168Z,62.59
2018-06-04T11:12:21.193Z,59.97
2018-06-04T11:13:21.136Z,60.35
2018-06-04T11:14:21.102Z,61.71
2018-06-04T11:15:21.090Z,59.97
2018-06-04T11:16:21.110Z,59.48
2018-06-04T11:17:21.059Z,60.06
2018-06-04T11:18:21.043Z,61.61
2018-06-04T11:19:20.998Z,61.61
2018-06-04T11:20:21.005Z,61.42
2018-06-04T11:21:20.953Z,61.32
2018-06-04T11:22:20.930Z,62.39
2018-06-04T11:23:20.939Z,63.95
2018-06-04T11:24:20.979Z,63.17
2018-06-04T11:25:20.960Z,65.50
2018-06-04T11:26:20.850Z,64.56
2018-06-04T11:27:20.827Z,63.01
2018-06-04T11:28:20.809Z,61.84
2018-06-04T11:29:20.807Z,62.81
2018-06-04T11:30:20.765Z,63.13
2018-06-04T11:31:20.759Z,63.29
2018-06-04T11:32:20.762Z,60.90
2018-06-04T11:33:20.775Z,59.83
2018-06-04T11:34:20.693Z,60.38
2018-06-04T11:35:20.673Z,60.19
2018-06-04T11:36:20.709Z,58.54
2018-06-04T11:37:20.617Z,60.19
2018-06-04T11:38:20.590Z,59.70
2018-06-04T11:39:20.571Z,59.74
2018-06-04T11:40:20.568Z,59.41
2018-06-04T11:41:20.543Z,59.70
2018-06-04T11:42:20.507Z,59.51
2018-06-04T11:43:20.493Z,59.80
2018-06-04T11:44:20.460Z,57.57
2018-06-04T11:45:20.440Z,58.83
2018-06-04T11:46:20.422Z,57.76
2018-06-04T11:47:20.399Z,58.44
2018-06-04T11:48:20.383Z,58.73
2018-06-04T11:49:20.365Z,56.60
2018-06-04T11:50:20.333Z,57.76
2018-06-04T11:51:20.354Z,58.05
2018-06-04T11:52:20.294Z,58.64
2018-06-04T11:53:20.268Z,58.93
2018-06-04T11:54:20.256Z,59.80
2018-06-04T11:55:20.228Z,58.25
2018-06-04T11:56:20.258Z,58.15
2018-06-04T11:57:20.192Z,58.34
2018-06-04T11:58:20.164Z,58.76
2018-06-04T11:59:27.285Z,56.98
2018-06-04T12:01:13.032Z,59.05
2018-06-04T12:02:12.963Z,55.92
2018-06-04T12:04:05.809Z,56.43
2018-06-04T12:05:05.802Z,57.01
2018-06-04T12:06:58.656Z,55.07
2018-06-04T12:07:58.602Z,56.04
2018-06-04T12:09:51.484Z,57.21
2018-06-04T12:10:51.463Z,55.75
2018-06-04T12:12:44.307Z,56.52
2018-06-04T12:13:44.254Z,57.82
2018-06-04T12:14:44.234Z,57.14
2018-06-04T12:15:44.214Z,56.07
2018-06-04T12:16:44.185Z,56.07
2018-06-04T12:17:44.171Z,56.85
2018-06-04T12:18:44.148Z,55.49
2018-06-04T12:19:44.125Z,55.68
2018-06-04T12:20:44.110Z,55.78
2018-06-04T12:21:44.080Z,55.78
2018-06-04T12:22:44.067Z,55.90
2018-06-04T12:23:44.049Z,54.32
2018-06-04T12:24:44.020Z,56.95
2018-06-04T12:25:44.005Z,55.71
2018-06-04T12:26:43.976Z,54.25
2018-06-04T12:27:43.961Z,55.41
2018-06-04T12:28:43.947Z,56.00
2018-06-04T12:29:43.917Z,54.83
2018-06-04T12:30:43.905Z,54.15
2018-06-04T12:31:43.877Z,53.18
2018-06-04T12:32:43.857Z,53.38
2018-06-04T12:33:43.851Z,54.25
2018-06-04T12:34:43.814Z,55.41
2018-06-04T12:35:43.791Z,53.74
2018-06-04T12:36:43.775Z,54.44
2018-06-04T12:37:43.751Z,54.15
2018-06-04T12:38:43.733Z,55.51
2018-06-04T12:39:43.711Z,54.05
2018-06-04T12:40:43.688Z,53.96
2018-06-04T12:41:43.664Z,53.86
2018-06-04T12:42:43.654Z,54.28
2018-06-04T12:43:43.625Z,54.38
2018-06-04T12:44:43.610Z,54.18
2018-06-04T12:45:43.591Z,53.40
2018-06-04T12:46:43.561Z,53.62
2018-06-04T12:47:43.543Z,53.33
2018-06-04T12:48:43.525Z,52.26
2018-06-04T12:49:43.508Z,53.14
2018-06-04T12:50:43.480Z,52.94
2018-06-04T12:51:43.464Z,51.77
2018-06-04T12:52:43.445Z,51.97
2018-06-04T12:53:43.420Z,53.14
2018-06-04T12:54:43.405Z,53.72
2018-06-04T12:55:43.385Z,54.30
2018-06-04T12:56:43.368Z,52.65